Bridgnorth, United Kingdom
Current Conditions -  °F | °C
As of 2:50 AM on Saturday 22 Nov 2014 (Local Time) from EGOS Reporting Station
Haze Haze  
Wind Chill: 46°   Ceiling: 200
Heat Index: 48°   Visibility: 2.1mi
Dew Point: 46°   Wind: 6mph
Humidity: 93%   Direction: 130°SE
Pressure: 29.77"   Gusts: NA
Location:  52.54°N, 2.42°W
Report Text: EGOS 220250Z AUTO 13005KT 3500 BR OVC002/// 09/08 Q1008 RERA
Loading
Personal Weather Stations






























Interactive Weather Map New forecast layout! Learn more

10-Day Weather Forecast

Advertisements
Track Severe Weather on mobile